Time;durP1;ratioP1;P1;durP2;ratioP2;P2;SDS_P1;SDS_P2;PMS_P1;PMS_P2;Temp;Humidity;BMP_temperature;BMP_pressure;BME280_temperature;BME280_humidity;BME280_pressure;Samples;Min_cycle;Max_cycle;Signal;HPM_P1;HPM_P2
2024/01/12 00:01:07;;;;;;;5.05;1.80;;;;;;;-3.18;90.99;101050.31;1756342;81;25931;-55
2024/01/12 00:03:37;;;;;;;4.20;1.77;;;;;;;-3.25;90.55;101054.26;1756423;81;25593;-53
2024/01/12 00:06:05;;;;;;;6.20;2.40;;;;;;;-3.30;90.50;101058.00;1756323;81;27531;-54
2024/01/12 00:08:32;;;;;;;5.62;1.92;;;;;;;-3.32;90.71;101055.23;1756400;81;25583;-51
2024/01/12 00:10:59;;;;;;;3.22;1.87;;;;;;;-3.33;90.78;101066.84;1756366;81;25577;-50
2024/01/12 00:13:26;;;;;;;3.05;1.90;;;;;;;-3.33;90.80;101062.88;1756194;81;25668;-50
2024/01/12 00:15:52;;;;;;;5.55;1.70;;;;;;;-3.33;90.86;101065.53;1756400;81;25393;-51
2024/01/12 00:18:18;;;;;;;3.00;1.72;;;;;;;-3.33;90.62;101065.02;1756252;81;27525;-51
2024/01/12 00:20:45;;;;;;;3.77;2.10;;;;;;;-3.34;90.23;101056.75;1756141;81;25541;-51
2024/01/12 00:23:11;;;;;;;4.95;2.00;;;;;;;-3.33;90.15;101058.91;1756233;81;25596;-50
2024/01/12 00:25:37;;;;;;;7.75;2.05;;;;;;;-3.33;89.67;101049.65;1756215;81;25515;-51
2024/01/12 00:28:05;;;;;;;2.65;1.62;;;;;;;-3.33;89.50;101055.75;1756260;81;25457;-50
2024/01/12 00:30:31;;;;;;;3.20;1.70;;;;;;;-3.34;89.04;101061.23;1756267;81;27442;-50
2024/01/12 00:32:58;;;;;;;4.45;2.37;;;;;;;-3.33;88.83;101060.23;1756203;81;25637;-50
2024/01/12 00:35:24;;;;;;;4.75;2.30;;;;;;;-3.35;88.72;101063.08;1756297;81;25414;-51
2024/01/12 00:37:50;;;;;;;3.87;2.27;;;;;;;-3.34;88.55;101067.84;1756203;81;25629;-51
2024/01/12 00:40:16;;;;;;;6.58;2.15;;;;;;;-3.38;88.42;101068.23;1756217;81;25550;-50
2024/01/12 00:42:43;;;;;;;5.83;2.08;;;;;;;-3.42;87.82;101056.95;1756268;81;27555;-50
2024/01/12 00:45:10;;;;;;;4.83;1.95;;;;;;;-3.47;87.51;101054.08;1756086;81;27267;-50
2024/01/12 00:47:37;;;;;;;3.58;1.87;;;;;;;-3.53;87.14;101058.82;1756241;81;25413;-50
2024/01/12 00:50:04;;;;;;;3.22;1.50;;;;;;;-3.61;86.43;101053.17;1756203;81;25657;-50
2024/01/12 00:52:31;;;;;;;2.77;1.52;;;;;;;-3.66;86.18;101064.84;1756282;81;25632;-51
2024/01/12 00:54:59;;;;;;;3.35;1.65;;;;;;;-3.71;86.09;101060.66;1756248;81;27457;-51
2024/01/12 00:57:25;;;;;;;2.47;1.60;;;;;;;-3.76;85.96;101066.03;1756281;81;25600;-51
2024/01/12 00:59:52;;;;;;;3.20;1.60;;;;;;;-3.85;85.64;101060.58;1756266;81;25603;-54
2024/01/12 01:02:19;;;;;;;4.25;1.85;;;;;;;-3.90;85.37;101074.08;1756320;81;25550;-54
2024/01/12 01:04:46;;;;;;;3.62;2.00;;;;;;;-3.98;84.96;101081.66;1756301;81;25554;-55
2024/01/12 01:07:12;;;;;;;4.05;1.60;;;;;;;-4.05;84.88;101088.22;1756419;81;27457;-55
2024/01/12 01:09:39;;;;;;;2.98;1.62;;;;;;;-4.14;84.55;101077.47;1756260;81;25636;-52
2024/01/12 01:12:07;;;;;;;5.30;1.75;;;;;;;-4.21;84.27;101076.09;1756242;81;25644;-52
2024/01/12 01:14:33;;;;;;;4.67;1.95;;;;;;;-4.27;84.14;101076.05;1756257;81;25531;-51
2024/01/12 01:16:59;;;;;;;3.02;1.92;;;;;;;-4.35;84.08;101077.82;1756272;81;31781;-52
2024/01/12 01:19:25;;;;;;;3.17;1.40;;;;;;;-4.42;83.94;101081.44;1756253;81;27457;-52
2024/01/12 01:21:52;;;;;;;7.67;1.95;;;;;;;-4.50;83.80;101078.41;1756173;81;25447;-50
2024/01/12 01:24:18;;;;;;;4.85;2.42;;;;;;;-4.60;83.73;101084.52;1756169;81;25599;-52
2024/01/12 01:26:45;;;;;;;6.65;2.12;;;;;;;-4.65;83.87;101094.83;1756223;81;25608;-51
2024/01/12 01:29:11;;;;;;;3.00;1.67;;;;;;;-4.73;83.80;101097.09;1756270;81;25384;-52
2024/01/12 01:31:38;;;;;;;5.22;1.57;;;;;;;-4.81;83.48;101101.17;1756224;81;27554;-53
2024/01/12 01:34:04;;;;;;;4.85;1.75;;;;;;;-4.91;83.41;101099.64;1756179;81;25391;-51
2024/01/12 01:36:30;;;;;;;3.33;1.70;;;;;;;-4.98;83.52;101114.59;1756257;81;25476;-54
2024/01/12 01:38:56;;;;;;;4.90;1.80;;;;;;;-5.05;83.45;101118.17;1756179;81;25541;-52
2024/01/12 01:41:23;;;;;;;4.97;1.75;;;;;;;-5.14;83.52;101123.55;1756252;81;25387;-51
2024/01/12 01:43:49;;;;;;;2.95;1.80;;;;;;;-5.21;83.54;101129.25;1756168;81;29673;-51
2024/01/12 01:46:16;;;;;;;2.65;1.47;;;;;;;-5.29;83.60;101138.58;1756113;81;25589;-53
2024/01/12 01:48:42;;;;;;;6.12;2.05;;;;;;;-5.38;83.31;101141.81;1756225;81;25399;-52
2024/01/12 01:51:09;;;;;;;4.33;2.10;;;;;;;-5.45;83.31;101150.12;1756142;81;25556;-53
2024/01/12 01:53:36;;;;;;;3.85;1.70;;;;;;;-5.54;83.32;101153.34;1756194;81;25494;-54
2024/01/12 01:56:05;;;;;;;2.45;1.67;;;;;;;-5.60;83.30;101153.25;1756221;81;27501;-50
2024/01/12 01:58:34;;;;;;;4.72;1.87;;;;;;;-5.67;83.37;101146.56;1756261;81;25628;-52
2024/01/12 02:01:03;;;;;;;6.03;2.15;;;;;;;-5.75;83.08;101143.52;1756435;81;34791;-51
2024/01/12 02:03:31;;;;;;;4.72;2.98;;;;;;;-5.82;83.23;101142.11;1726705;81;25554;-51
2024/01/12 02:05:58;;;;;;;2.65;1.45;;;;;;;-5.87;83.38;101144.97;1758690;81;25399;-54
2024/01/12 02:08:27;;;;;;;5.15;2.00;;;;;;;-5.93;83.52;101144.36;1761858;81;27546;-52
2024/01/12 02:10:55;;;;;;;3.08;1.95;;;;;;;-6.02;83.72;101148.41;1761932;81;25570;-52
2024/01/12 02:13:24;;;;;;;4.95;2.00;;;;;;;-6.08;83.85;101160.99;1761956;81;25619;-51
2024/01/12 02:15:50;;;;;;;5.33;2.47;;;;;;;-6.14;83.99;101156.42;1761819;81;26054;-51
2024/01/12 02:18:16;;;;;;;3.08;2.10;;;;;;;-6.21;84.06;101160.77;1761865;81;25451;-50
2024/01/12 02:20:47;;;;;;;5.10;2.50;;;;;;;-6.28;84.27;101160.66;1761862;81;27696;-51
2024/01/12 02:23:11;;;;;;;6.22;2.87;;;;;;;-6.33;84.27;101158.20;1761024;81;25443;-52
2024/01/12 02:25:38;;;;;;;5.22;2.33;;;;;;;-6.41;84.37;101155.96;1761873;81;25418;-50
2024/01/12 02:28:06;;;;;;;6.37;2.85;;;;;;;-6.51;84.30;101152.74;1761953;81;25892;-52
2024/01/12 02:30:35;;;;;;;5.97;2.72;;;;;;;-6.58;84.35;101154.45;1761881;81;25451;-51
2024/01/12 02:33:06;;;;;;;6.22;3.17;;;;;;;-6.68;84.42;101163.88;1761954;81;27515;-51
2024/01/12 02:35:34;;;;;;;7.15;3.20;;;;;;;-6.75;84.55;101168.20;1761792;81;25457;-50
2024/01/12 02:38:02;;;;;;;6.03;3.25;;;;;;;-6.83;84.60;101172.19;1761857;81;25418;-50
2024/01/12 02:40:29;;;;;;;4.62;2.58;;;;;;;-6.91;84.78;101168.27;1762060;81;26050;-51
2024/01/12 02:42:56;;;;;;;6.30;2.83;;;;;;;-6.98;84.85;101168.14;1761860;81;25360;-51
2024/01/12 02:45:22;;;;;;;4.35;2.58;;;;;;;-7.07;84.62;101168.67;1761930;81;27446;-51
2024/01/12 02:47:48;;;;;;;4.22;2.83;;;;;;;-7.14;84.71;101165.09;1762005;81;25830;-53
2024/01/12 02:50:14;;;;;;;6.60;2.58;;;;;;;-7.21;84.92;101165.46;1762007;81;25547;-51
2024/01/12 02:52:41;;;;;;;6.80;3.15;;;;;;;-7.25;85.00;101169.41;1761963;81;26069;-53
2024/01/12 02:55:09;;;;;;;30.05;27.55;;;;;;;-7.32;85.09;101167.94;1762009;81;25558;-51
2024/01/12 02:57:35;;;;;;;5.72;3.05;;;;;;;-7.40;85.13;101164.05;1742781;82;28046;-50
2024/01/12 03:00:01;;;;;;;4.65;2.55;;;;;;;-7.45;85.15;101169.00;1761897;81;26038;-51
2024/01/12 03:02:28;;;;;;;7.55;3.05;;;;;;;-7.53;85.37;101161.44;1761976;81;25419;-51
2024/01/12 03:04:55;;;;;;;3.83;2.90;;;;;;;-7.59;85.48;101170.52;1761970;81;25504;-53
2024/01/12 03:07:22;;;;;;;5.15;2.85;;;;;;;-7.65;85.47;101167.23;1761944;81;25469;-52
2024/01/12 03:09:48;;;;;;;6.42;2.25;;;;;;;-7.72;85.47;101169.20;1761910;81;29736;-51
2024/01/12 03:12:14;;;;;;;7.30;2.83;;;;;;;-7.78;85.53;101169.05;1761865;81;25565;-51
2024/01/12 03:14:40;;;;;;;5.42;3.15;;;;;;;-7.85;85.57;101166.77;1761960;81;25522;-51
2024/01/12 03:17:06;;;;;;;8.45;2.58;;;;;;;-7.91;85.49;101171.70;1761894;81;25541;-50
2024/01/12 03:19:33;;;;;;;6.90;2.83;;;;;;;-7.98;85.54;101164.16;1761990;81;25388;-50
2024/01/12 03:21:59;;;;;;;7.00;3.12;;;;;;;-8.07;85.53;101167.76;1761967;81;28222;-52
2024/01/12 03:24:27;;;;;;;7.45;2.62;;;;;;;-8.15;85.65;101163.84;1761874;81;27324;-53
2024/01/12 03:26:54;;;;;;;6.40;2.85;;;;;;;-8.19;85.76;101165.95;1762096;81;25557;-51
2024/01/12 03:29:20;;;;;;;5.85;3.55;;;;;;;-8.23;86.05;101167.78;1761940;81;25583;-51
2024/01/12 03:31:47;;;;;;;5.22;3.40;;;;;;;-8.28;86.20;101167.76;1761981;81;25544;-50
2024/01/12 03:34:14;;;;;;;7.47;3.05;;;;;;;-8.31;86.33;101176.45;1762017;81;27402;-50
2024/01/12 03:36:40;;;;;;;7.55;3.15;;;;;;;-8.35;86.39;101169.91;1761885;81;25727;-50
2024/01/12 03:39:07;;;;;;;30.82;28.40;;;;;;;-8.40;86.31;101170.38;1761954;81;25600;-51
2024/01/12 03:41:33;;;;;;;70.47;65.32;;;;;;;-8.50;86.08;101172.37;1761847;80;27645;-50
2024/01/12 03:43:59;;;;;;;6.78;2.77;;;;;;;-8.53;85.95;101184.49;1761897;81;25600;-50
2024/01/12 03:46:26;;;;;;;8.73;3.60;;;;;;;-8.57;85.75;101187.13;1761946;81;27477;-50
2024/01/12 03:48:52;;;;;;;8.28;5.28;;;;;;;-8.63;85.71;101185.97;1761826;81;25414;-50
2024/01/12 03:51:19;;;;;;;9.58;7.55;;;;;;;-8.68;85.98;101176.45;1761902;81;25429;-50
2024/01/12 03:53:46;;;;;;;8.03;2.83;;;;;;;-8.71;85.96;101168.90;1761887;81;25561;-50
2024/01/12 03:56:12;;;;;;;79.97;74.32;;;;;;;-8.75;86.23;101172.34;1761919;81;25444;-50
2024/01/12 03:58:40;;;;;;;80.45;74.58;;;;;;;-8.81;86.23;101166.91;1761903;81;27837;-50
2024/01/12 04:01:08;;;;;;;4.25;2.75;;;;;;;-8.87;86.32;101171.81;1761791;81;25544;-51
2024/01/12 04:03:35;;;;;;;8.28;4.08;;;;;;;-8.91;86.47;101174.91;1761947;81;25444;-51
2024/01/12 04:06:10;;;;;;;8.88;5.92;;;;;;;-8.94;86.72;101171.28;1760959;81;25481;-49
2024/01/12 04:08:37;;;;;;;21.00;11.45;;;;;;;-8.97;86.83;101175.53;1756307;81;25554;-52
2024/01/12 04:11:05;;;;;;;15.90;7.60;;;;;;;-9.00;87.03;101187.66;1745558;82;29766;-52
2024/01/12 04:13:33;;;;;;;10.65;4.65;;;;;;;-9.06;86.89;101191.25;1756229;81;25522;-54
2024/01/12 04:15:59;;;;;;;80.25;74.47;;;;;;;-9.12;86.75;101195.80;1756212;81;25493;-54
2024/01/12 04:18:27;;;;;;;80.72;74.55;;;;;;;-9.18;86.54;101200.84;1745515;82;25864;-51
2024/01/12 04:20:53;;;;;;;80.55;74.90;;;;;;;-9.30;86.69;101199.80;1745608;82;25565;-52
2024/01/12 04:23:19;;;;;;;80.67;74.97;;;;;;;-9.30;86.69;101199.80;1745568;82;27877;-53
2024/01/12 04:25:47;;;;;;;38.78;35.92;;;;;;;-9.34;86.97;101202.41;1745378;82;25816;-50
2024/01/12 04:28:13;;;;;;;60.05;55.50;;;;;;;-9.36;87.03;101199.59;1745564;81;25359;-50
2024/01/12 04:30:39;;;;;;;80.97;75.25;;;;;;;-9.39;87.14;101206.80;1745553;82;26090;-51
2024/01/12 04:33:05;;;;;;;79.65;73.90;;;;;;;-9.43;87.40;101202.02;1745570;82;25595;-51
2024/01/12 04:35:31;;;;;;;45.67;42.08;;;;;;;-9.44;87.66;101205.14;1745605;81;27272;-50
2024/01/12 04:37:59;;;;;;;9.30;5.55;;;;;;;-9.42;87.83;101208.41;1745442;82;25652;-52
2024/01/12 04:40:26;;;;;;;11.20;6.90;;;;;;;-9.41;87.99;101206.64;1756251;81;25482;-51
2024/01/12 04:42:53;;;;;;;12.82;8.18;;;;;;;-9.42;88.12;101206.30;1756208;81;25581;-51
2024/01/12 04:45:20;;;;;;;15.23;6.95;;;;;;;-9.41;88.16;101210.07;1756358;81;25550;-51
2024/01/12 04:47:48;;;;;;;9.38;7.42;;;;;;;-9.41;88.13;101207.95;1756265;81;27478;-50
2024/01/12 04:50:14;;;;;;;13.30;6.87;;;;;;;-9.40;88.17;101209.57;1756216;81;25615;-50
2024/01/12 04:52:40;;;;;;;16.70;7.12;;;;;;;-9.39;88.12;101212.54;1756178;81;25682;-50
2024/01/12 04:55:09;;;;;;;16.97;8.58;;;;;;;-9.40;88.20;101213.03;1756187;81;26077;-50
2024/01/12 04:57:38;;;;;;;13.45;7.53;;;;;;;-9.36;88.35;101221.41;1756391;81;25604;-51
2024/01/12 05:00:08;;;;;;;69.12;63.68;;;;;;;-9.34;88.50;101214.70;1756344;81;27563;-50
2024/01/12 05:02:35;;;;;;;15.80;7.12;;;;;;;-9.35;88.56;101211.23;1745488;82;25480;-51
2024/01/12 05:05:04;;;;;;;15.30;8.25;;;;;;;-9.30;88.47;101212.09;1745424;82;25534;-51
2024/01/12 05:07:32;;;;;;;20.55;10.53;;;;;;;-9.28;88.57;101216.68;1759414;81;25524;-50
2024/01/12 05:09:58;;;;;;;18.52;7.87;;;;;;;-9.26;88.67;101217.34;1742581;82;25570;-51
2024/01/12 05:12:26;;;;;;;17.57;7.58;;;;;;;-9.24;88.77;101214.09;1761922;81;27494;-50
2024/01/12 05:14:52;;;;;;;16.77;7.05;;;;;;;-9.23;88.77;101210.02;1761793;81;25555;-49
2024/01/12 05:17:24;;;;;;;15.13;6.95;;;;;;;-9.20;88.82;101218.04;1761862;81;25732;-51
2024/01/12 05:19:50;;;;;;;11.45;4.83;;;;;;;-9.19;88.80;101217.08;1761876;81;26032;-52
2024/01/12 05:22:16;;;;;;;51.75;47.75;;;;;;;-9.21;88.81;101210.67;1761872;81;25563;-50
2024/01/12 05:24:42;;;;;;;9.50;4.10;;;;;;;-9.23;88.64;101207.39;1761778;81;28115;-50
2024/01/12 05:27:08;;;;;;;9.07;4.30;;;;;;;-9.25;88.55;101207.20;1761709;81;25561;-50
2024/01/12 05:29:36;;;;;;;14.15;5.70;;;;;;;-9.23;88.50;101210.48;1761840;81;25556;-53
2024/01/12 05:32:05;;;;;;;8.88;5.47;;;;;;;-9.22;88.46;101216.07;1733814;81;25559;-50
2024/01/12 05:34:32;;;;;;;12.23;4.72;;;;;;;-9.25;88.45;101210.64;1762042;81;25451;-53
2024/01/12 05:36:58;;;;;;;13.28;6.60;;;;;;;-9.27;88.33;101213.09;1761825;81;28122;-53
2024/01/12 05:39:24;;;;;;;8.70;5.53;;;;;;;-9.29;88.36;101212.44;1761721;81;25370;-53
2024/01/12 05:41:50;;;;;;;7.78;4.65;;;;;;;-9.31;88.34;101213.05;1761806;81;25545;-53
2024/01/12 05:44:16;;;;;;;6.72;3.42;;;;;;;-9.30;88.41;101210.78;1761765;81;25521;-51
2024/01/12 05:46:42;;;;;;;9.90;3.52;;;;;;;-9.33;88.36;101209.78;1761831;81;25551;-50
2024/01/12 05:49:09;;;;;;;11.30;3.35;;;;;;;-9.33;88.53;101205.38;1761821;81;27501;-52
2024/01/12 05:51:35;;;;;;;8.40;4.10;;;;;;;-9.33;88.59;101207.16;1761722;81;25454;-50
2024/01/12 05:54:06;;;;;;;10.13;3.80;;;;;;;-9.33;88.68;101210.63;1761956;81;25531;-50
2024/01/12 05:56:33;;;;;;;9.68;3.10;;;;;;;-9.33;88.83;101200.61;1761997;81;27670;-53
2024/01/12 05:58:59;;;;;;;5.67;3.72;;;;;;;-9.33;88.90;101201.45;1761860;81;25429;-50
2024/01/12 06:01:25;;;;;;;8.73;3.12;;;;;;;-9.34;88.94;101198.98;1761829;81;27551;-50
2024/01/12 06:03:51;;;;;;;7.95;3.58;;;;;;;-9.31;89.10;101201.27;1761678;81;25642;-49
2024/01/12 06:06:17;;;;;;;77.85;72.60;;;;;;;-9.33;89.16;101200.14;1761796;81;25450;-50
2024/01/12 06:08:44;;;;;;;8.23;3.67;;;;;;;-9.34;89.14;101197.17;1742497;82;26043;-49
2024/01/12 06:11:10;;;;;;;6.97;4.10;;;;;;;-9.32;89.07;101200.95;1761846;81;25558;-50
2024/01/12 06:13:36;;;;;;;9.23;3.80;;;;;;;-9.33;88.98;101197.98;1761608;81;27653;-51
2024/01/12 06:16:05;;;;;;;9.30;4.35;;;;;;;-9.32;88.90;101203.57;1761434;81;25738;-50
2024/01/12 06:18:32;;;;;;;15.10;8.43;;;;;;;-9.34;88.84;101198.98;1762012;81;25542;-51
2024/01/12 06:20:58;;;;;;;14.60;8.03;;;;;;;-9.34;88.84;101201.60;1761943;81;25584;-50
2024/01/12 06:23:24;;;;;;;12.18;6.08;;;;;;;-9.33;88.92;101204.53;1762006;81;25376;-53
2024/01/12 06:25:50;;;;;;;14.35;6.50;;;;;;;-9.31;89.01;101203.88;1761897;81;27563;-53
2024/01/12 06:28:18;;;;;;;12.50;6.12;;;;;;;-9.30;89.10;101202.92;1761925;81;25607;-52
2024/01/12 06:30:45;;;;;;;12.85;6.10;;;;;;;-9.27;89.32;101198.19;1762086;81;25453;-50
2024/01/12 06:33:16;;;;;;;13.15;5.62;;;;;;;-9.23;89.52;101203.47;1761902;81;25561;-50
2024/01/12 06:35:42;;;;;;;10.32;5.90;;;;;;;-9.17;89.56;101202.50;1762063;81;25394;-49
2024/01/12 06:38:10;;;;;;;18.67;7.58;;;;;;;-9.12;89.73;101205.48;1761929;81;27483;-49
2024/01/12 06:40:40;;;;;;;21.70;11.30;;;;;;;-9.07;89.78;101204.52;1761864;81;25384;-49
2024/01/12 06:43:06;;;;;;;22.87;12.45;;;;;;;-9.04;89.82;101208.95;1742744;82;25572;-49
2024/01/12 06:45:32;;;;;;;19.70;10.28;;;;;;;-8.97;89.87;101209.61;1761911;81;25520;-53
2024/01/12 06:48:00;;;;;;;21.33;9.28;;;;;;;-8.92;89.98;101210.80;1730164;83;25651;-53
2024/01/12 06:50:28;;;;;;;16.50;7.67;;;;;;;-8.86;90.12;101211.95;1762091;81;27489;-55
2024/01/12 06:52:57;;;;;;;14.58;6.80;;;;;;;-8.79;90.08;101210.84;1762033;81;25789;-51
2024/01/12 06:55:23;;;;;;;16.12;7.40;;;;;;;-8.76;89.95;101208.72;1761966;81;25360;-51
2024/01/12 06:57:49;;;;;;;15.00;7.67;;;;;;;-8.70;90.03;101213.80;1761970;81;25567;-52
2024/01/12 07:00:19;;;;;;;50.90;27.00;;;;;;;-8.64;90.17;101212.67;1762011;81;25437;-54
2024/01/12 07:02:47;;;;;;;43.42;18.80;;;;;;;-8.56;90.32;101211.89;1731728;82;27222;-52
2024/01/12 07:05:17;;;;;;;18.45;9.95;;;;;;;-8.49;90.57;101219.94;1761875;81;25620;-55
2024/01/12 07:07:45;;;;;;;;;;;;;;;-8.41;90.72;101216.47;1763477;81;25455;-51
2024/01/12 07:10:13;;;;;;;28.60;13.50;;;;;;;-8.31;91.00;101207.95;1745334;82;25628;-55
2024/01/12 07:12:39;;;;;;;20.10;10.30;;;;;;;-8.26;91.12;101213.06;1759319;81;25383;-51
2024/01/12 07:15:10;;;;;;;18.40;8.85;;;;;;;-8.18;91.24;101212.73;1727508;83;27560;-53
2024/01/12 07:17:36;;;;;;;17.05;8.58;;;;;;;-8.09;91.34;101216.99;1759234;81;25739;-51
2024/01/12 07:20:06;;;;;;;14.25;7.67;;;;;;;-8.01;91.35;101220.94;1759238;81;25675;-51
2024/01/12 07:22:32;;;;;;;16.20;8.13;;;;;;;-7.92;91.29;101227.83;1759263;81;25505;-53
2024/01/12 07:24:58;;;;;;;17.25;7.83;;;;;;;-7.85;91.30;101220.11;1759195;81;25390;-50
2024/01/12 07:27:24;;;;;;;16.95;7.60;;;;;;;-7.74;91.37;101218.97;1759241;81;27519;-50
2024/01/12 07:29:51;;;;;;;37.73;29.07;;;;;;;-7.64;91.69;101213.52;1759202;81;25583;-49
2024/01/12 07:32:17;;;;;;;40.50;17.73;;;;;;;-7.54;92.04;101217.63;1727448;83;25450;-52
2024/01/12 07:34:43;;;;;;;26.95;11.90;;;;;;;-7.40;92.32;101214.00;1745256;82;25875;-52
2024/01/12 07:37:09;;;;;;;86.87;79.62;;;;;;;-7.32;92.01;101218.73;1759295;81;25605;-50
2024/01/12 07:39:35;;;;;;;16.00;7.50;;;;;;;-7.24;92.06;101214.44;1727485;83;27507;-53
2024/01/12 07:42:02;;;;;;;18.35;8.00;;;;;;;-7.15;92.07;101219.52;1759200;81;25674;-51
2024/01/12 07:44:28;;;;;;;20.55;8.20;;;;;;;-7.06;92.13;101209.78;1759205;81;25381;-53
2024/01/12 07:46:54;;;;;;;25.62;9.43;;;;;;;-6.98;92.35;101211.54;1759137;81;25616;-52
2024/01/12 07:49:20;;;;;;;16.82;8.95;;;;;;;-6.90;92.32;101200.98;1759296;81;25586;-50
2024/01/12 07:51:47;;;;;;;27.45;9.18;;;;;;;-6.83;92.21;101204.56;1759266;81;27461;-52
2024/01/12 07:54:13;;;;;;;16.52;7.90;;;;;;;-6.74;92.35;101198.80;1759115;81;25612;-51
2024/01/12 07:56:39;;;;;;;17.52;7.75;;;;;;;-6.65;92.45;101203.52;1759236;81;25604;-50
2024/01/12 07:59:05;;;;;;;15.78;6.97;;;;;;;-6.59;92.26;101198.38;1759166;81;25604;-50
2024/01/12 08:01:31;;;;;;;17.35;8.43;;;;;;;-6.52;92.17;101195.87;1731364;81;25562;-51
2024/01/12 08:03:57;;;;;;;15.72;6.70;;;;;;;-6.44;92.33;101193.16;1759167;81;27786;-51
2024/01/12 08:06:24;;;;;;;81.57;75.37;;;;;;;-6.35;92.50;101190.01;1759078;81;25707;-51
2024/01/12 08:08:50;;;;;;;82.27;76.00;;;;;;;-6.30;92.36;101181.08;1727340;82;25678;-52
2024/01/12 08:11:16;;;;;;;79.70;73.97;;;;;;;-6.20;92.69;101179.50;1745299;82;25552;-52
2024/01/12 08:13:42;;;;;;;78.47;73.00;;;;;;;-6.10;92.92;101176.64;1759356;81;25605;-52
2024/01/12 08:16:09;;;;;;;58.20;54.07;;;;;;;-5.98;93.45;101165.99;1727538;83;27514;-54
2024/01/12 08:18:35;;;;;;;78.70;73.10;;;;;;;-5.87;93.71;101165.54;1745204;82;25612;-53
2024/01/12 08:21:03;;;;;;;16.15;15.38;;;;;;;-5.78;93.67;101166.28;1759427;81;25569;-50
2024/01/12 08:23:29;;;;;;;45.97;42.17;;;;;;;;;;1727452;83;25738;-53
2024/01/12 08:25:55;;;;;;;62.37;57.60;;;;;;;;;;1745375;82;25442;-51
2024/01/12 08:28:21;;;;;;;12.70;12.10;;;;;;;;;;1745345;82;31022;-53
2024/01/12 08:30:47;;;;;;;16.47;15.67;;;;;;;63.37;100.00;122580.54;1745237;82;25662;-52
2024/01/12 08:33:15;;;;;;;38.98;36.60;;;;;;;;;;1759406;81;25725;-52
2024/01/12 08:35:41;;;;;;;10.20;9.70;;;;;;;;;;1745269;82;32328;-51
2024/01/12 08:38:07;;;;;;;45.67;42.17;;;;;;;;;;1745344;82;25195;-51
2024/01/12 08:40:33;;;;;;;14.87;14.23;;;;;;;;;;1745276;82;29040;-52
2024/01/12 08:43:01;;;;;;;81.50;75.67;;;;;;;;;;1745209;82;29594;-53
2024/01/12 08:45:28;;;;;;;54.83;51.13;;;;;;;;;;1745410;82;25609;-51
2024/01/12 08:47:58;;;;;;;25.62;23.57;;;;;;;;;;1745431;82;26210;-54
2024/01/12 08:50:24;;;;;;;62.07;57.83;;;;;;;;;;1745301;82;25451;-53
2024/01/12 08:52:52;;;;;;;22.10;20.60;;;;;;;;;;1745438;82;27664;-51
2024/01/12 08:55:18;;;;;;;19.30;16.93;;;;;;;;;;1745139;82;25654;-54
2024/01/12 08:57:44;;;;;;;13.97;6.67;;;;;;;;;;1745238;82;25400;-54
2024/01/12 09:00:18;;;;;;;17.37;7.35;;;;;;;;;;1745277;82;25596;-50
2024/01/12 09:02:43;;;;;;;14.47;7.20;;;;;;;;;;1745297;82;25219;-50
2024/01/12 09:05:12;;;;;;;12.20;5.53;;;;;;;;;;1745254;82;27508;-54
2024/01/12 09:07:38;;;;;;;6.03;3.80;;;;;;;;;;1745204;82;25403;-51
2024/01/12 09:10:11;;;;;;;13.73;6.37;;;;;;;;;;1745303;82;25504;-52
2024/01/12 09:12:37;;;;;;;10.53;5.55;;;;;;;;;;1745261;82;26058;-51
2024/01/12 09:15:10;;;;;;;14.73;6.63;;;;;;;;;;1745348;82;30287;-51
2024/01/12 09:17:39;;;;;;;14.28;6.92;;;;;;;;;;1744810;82;27790;-52
2024/01/12 09:20:11;;;;;;;16.20;7.55;;;;;;;;;;1743803;82;25473;-54
2024/01/12 09:22:37;;;;;;;19.17;7.87;;;;;;;;;;1744646;82;25699;-51
2024/01/12 09:25:08;;;;;;;13.03;5.33;;;;;;;;;;1744750;82;33198;-52
2024/01/12 09:27:34;;;;;;;11.97;6.20;;;;;;;;;;1744771;82;25707;-53
2024/01/12 09:30:00;;;;;;;9.83;5.03;;;;;;;;;;1744768;82;27561;-53
2024/01/12 09:32:27;;;;;;;11.50;6.62;;;;;;;;;;1744684;82;25695;-51
2024/01/12 09:34:53;;;;;;;78.57;72.37;;;;;;;;;;1745195;82;25604;-51
2024/01/12 09:37:19;;;;;;;10.98;5.37;;;;;;;;;;1745213;82;33462;-51
2024/01/12 09:39:45;;;;;;;10.18;4.67;;;;;;;;;;1745252;82;31578;-54
2024/01/12 09:42:15;;;;;;;8.85;4.17;;;;;;;;;;1745173;82;27493;-54
2024/01/12 09:44:47;;;;;;;7.60;4.00;;;;;;;;;;1745112;82;25426;-52
2024/01/12 09:47:13;;;;;;;58.35;54.08;;;;;;;;;;1745170;82;25612;-53
2024/01/12 09:49:41;;;;;;;44.80;41.42;;;;;;;;;;1745156;82;25538;-50
2024/01/12 09:52:10;;;;;;;75.67;70.25;;;;;;;;;;1745229;82;25625;-52
2024/01/12 09:54:38;;;;;;;;;;;;;;;;;;1747480;82;28650;-50
2024/01/12 09:57:07;;;;;;;8.03;5.60;;;;;;;;;;1744839;82;27029;-52
2024/01/12 09:59:36;;;;;;;5.15;2.87;;;;;;;;;;1745246;82;25632;-52
2024/01/12 10:02:06;;;;;;;81.37;75.08;;;;;;;;;;1745228;82;25682;-51
2024/01/12 10:04:33;;;;;;;80.42;74.32;;;;;;;;;;1745319;82;25514;-52
2024/01/12 10:07:02;;;;;;;34.75;19.82;;;;;;;;;;1727403;83;27532;-53
2024/01/12 10:09:30;;;;;;;29.50;13.10;;;;;;;;;;1743834;82;25599;-54
2024/01/12 10:11:57;;;;;;;12.40;5.33;;;;;;;;;;1743559;82;25629;-56
2024/01/12 10:14:25;;;;;;;10.48;4.55;;;;;;;;;;1743258;82;25536;-53
2024/01/12 10:16:59;;;;;;;10.40;4.55;;;;;;;;;;1743424;82;25496;-55
2024/01/12 10:19:26;;;;;;;8.38;5.35;;;;;;;;;;1743324;82;27932;-51
2024/01/12 10:21:56;;;;;;;9.45;4.95;;;;;;;;;;1743241;82;25402;-53
2024/01/12 10:24:22;;;;;;;10.28;4.87;;;;;;;;;;1743299;82;25467;-55
2024/01/12 10:26:52;;;;;;;9.25;4.45;;;;;;;;;;1743354;82;34715;-52
2024/01/12 10:29:19;;;;;;;9.70;5.12;;;;;;;;;;1743398;82;25431;-52
2024/01/12 10:31:48;;;;;;;9.28;4.83;;;;;;;;;;1743307;82;27369;-53
2024/01/12 10:34:16;;;;;;;9.53;4.90;;;;;;;;;;1743233;82;25615;-51
2024/01/12 10:36:47;;;;;;;19.80;6.95;;;;;;;;;;1743545;82;25523;-56
2024/01/12 10:39:15;;;;;;;56.55;34.75;;;;;;;;;;1743368;82;25564;-54
2024/01/12 10:41:45;;;;;;;17.00;7.10;;;;;;;;;;1743455;82;25426;-52
2024/01/12 10:44:18;;;;;;;9.48;4.70;;;;;;;;;;1743313;82;27389;-52
2024/01/12 10:46:50;;;;;;;12.53;4.85;;;;;;;;;;1743287;82;25398;-53
2024/01/12 10:49:24;;;;;;;10.55;4.95;;;;;;;;;;1743521;82;25223;-55
2024/01/12 10:52:06;;;;;;;13.22;5.40;;;;;;;;;;1740770;82;27947;-55
2024/01/12 10:54:51;;;;;;;8.25;5.50;;;;;;;;;;1743352;82;25482;-54
2024/01/12 10:57:19;;;;;;;8.18;5.28;;;;;;;;;;1743354;82;27973;-53
2024/01/12 10:59:51;;;;;;;9.65;5.67;;;;;;;;;;1743156;82;25639;-53
2024/01/12 11:02:23;;;;;;;10.25;5.40;;;;;;;;;;1743326;82;25472;-53
2024/01/12 11:04:49;;;;;;;12.28;6.00;;;;;;;;;;1743336;82;26332;-56
2024/01/12 11:07:19;;;;;;;11.63;6.03;;;;;;;;;;1743548;82;25529;-55
2024/01/12 11:09:55;;;;;;;8.88;4.78;;;;;;;;;;1743282;82;27179;-52
2024/01/12 11:12:31;;;;;;;9.08;5.60;;;;;;;;;;1742008;82;25555;-53
2024/01/12 11:14:59;;;;;;;8.55;5.00;;;;;;;;;;1743755;82;25556;-54
2024/01/12 11:17:38;;;;;;;11.63;5.35;;;;;;;;;;1743364;82;25617;-56
2024/01/12 11:20:12;;;;;;;11.93;6.15;;;;;;;;;;1743677;82;25564;-53
2024/01/12 11:22:42;;;;;;;12.65;5.83;;;;;;;;;;1743505;82;27449;-52
2024/01/12 11:25:12;;;;;;;11.28;5.65;;;;;;;;;;1743417;82;25504;-55
2024/01/12 11:27:49;;;;;;;9.20;5.33;;;;;;;;;;1743477;82;25615;-55
2024/01/12 11:30:18;;;;;;;10.65;5.92;;;;;;;;;;1743398;82;25481;-56
2024/01/12 11:32:46;;;;;;;24.60;15.30;;;;;;;;;;1743518;82;25608;-56
2024/01/12 11:35:19;;;;;;;14.53;7.70;;;;;;;;;;1743610;82;28064;-56
2024/01/12 11:38:00;;;;;;;10.78;7.00;;;;;;;;;;1743448;82;25640;-52
2024/01/12 11:40:26;;;;;;;10.18;5.50;;;;;;;;;;1741639;82;25571;-56
2024/01/12 11:42:53;;;;;;;12.85;6.37;;;;;;;;;;1743573;82;25875;-56
2024/01/12 11:45:20;;;;;;;17.75;6.67;;;;;;;;;;1743598;82;25561;-57
2024/01/12 11:47:48;;;;;;;14.90;6.62;;;;;;;;;;1743524;82;28135;-53
2024/01/12 11:50:16;;;;;;;13.88;6.42;;;;;;;;;;1743418;82;25405;-55
2024/01/12 11:54:33;;;;;;;10.98;6.53;;;;;;;3.81;55.76;100953.56;1868329;76;34685;-53
2024/01/12 11:57:11;;;;;;;14.13;6.70;;;;;;;3.16;55.86;100937.11;1824406;78;25416;-54
2024/01/12 11:59:37;;;;;;;11.70;7.10;;;;;;;2.67;57.05;100940.84;1824379;78;28299;-53
2024/01/12 12:02:08;;;;;;;18.20;8.35;;;;;;;2.11;56.89;100940.61;1824234;78;25660;-55
2024/01/12 12:04:34;;;;;;;12.82;6.92;;;;;;;1.73;57.95;100940.61;1824472;78;25424;-51
2024/01/12 12:07:00;;;;;;;13.75;7.47;;;;;;;1.27;57.29;100919.06;1803989;78;25850;-52
2024/01/12 12:09:26;;;;;;;12.85;7.78;;;;;;;0.89;57.85;100913.66;1824415;78;25613;-51